Overview Statistics Trail Chart Weather Telemetry Raw packets
 

This is the latest recevied weather packets stored in our database for station/object KQ4TV-2. If no packets are shown the sender has not sent any weather packets the latest 10 day(s).

<< 4 5 6 7 8 9 >>
Time Temp. Humidity Pressure Rain* Wind** Luminosity Snow
1787959057 31.67° C 48% - 0 mm - - -
1787957970 31.11° C 48% - 0 mm - - -
1787955070 32.22° C 45% - 0 mm - - -
1787954949 32.22° C 45% - 0 mm - - -
1787953740 32.22° C 46% - 0 mm - - -
1787939721 30° C 52% - 0 mm - - -
1787936942 29.44° C 58% - 0 mm - - -
1787929570 27.78° C 73% - 0 mm - - -
1787926250 26.67° C 78% - 0 mm - - -
1787926217 26.67° C 78% - 0 mm - - -
1787926186 26.67° C 78% - 0 mm - - -
1787917001 20.56° C 96% - 0 mm - - -
1787912382 21.11° C 96% - 0 mm - - -
1787912282 21.11° C 96% - 0 mm - - -
1787912167 21.11° C 96% - 0 mm - - -
1787911563 21.11° C 96% - 0 mm - - -
1787897181 22.78° C 91% - 0 mm - - -
1787889085 23.33° C 87% - 0 mm - - -
1787888238 23.89° C 85% - 0 mm - - -
1787875549 28.33° C 64% - 0 mm - - -
1787875187 28.89° C 63% - 0 mm - - -
1787874703 29.44° C 62% - 0 mm - - -
1787870352 31.67° C 54% - 0 mm - - -
1787868298 32.22° C 56% - 0 mm - - -
1787867331 31.67° C 58% - 0 mm - - -

* Rain since midnight (hover to see other rain measurements)
** Current wind speed in m/s (hover to see current wind gust speed)